Currently 75°F in Anza, California, USA
75°F
75°F / 54°F
calm
0.00"
Thursday, July 2, 2020 8:39 AM PDT

Anza, California Weather Summary
Last 36 Hours

Temperature Winds Hourly Humidity Dewpoint
Time Report Norm Report Norm Max Gusts Precip. Rpt. Norm Rpt. Norm Pressure
1Thu 08:39 AM  74.9°F  80°F  calm  6 mph  none  0.00"  33%  32%  43°F  46°F  N/A
2Thu 08:38 AM  75.0°F  80°F  calm  6 mph  none  ----  33%  32%  43°F  46°F  N/A
Thu 08:00 AM  72.5°F  77°F  calm  5 mph  none  0.00"  37%  36%  44°F  47°F  N/A
Thu 07:00 AM  64.8°F  70°F  calm  4 mph  none  0.00"  50%  47%  45°F  48°F  N/A
Thu 06:00 AM  56.0°F  64°F  calm  3 mph  none  0.00"  60%  55%  42°F  47°F  N/A
3Thu 05:29 AM  54.0°F  64°F  calm  3 mph  none  ----  65%  55%  42°F  47°F  N/A
Thu 05:00 AM  55.4°F  65°F  calm  3 mph  none  0.00"  65%  55%  43°F  48°F  N/A
Thu 04:00 AM  58.3°F  65°F  calm  3 mph  none  0.00"  80%  56%  52°F  48°F  N/A
Thu 03:00 AM  59.0°F  65°F  calm  4 mph  none  0.00"  86%  57%  55°F  49°F  N/A
Thu 02:00 AM  61.2°F  66°F  calm  4 mph  none  0.00"  84%  58%  56°F  50°F  N/A
Thu 01:00 AM  59.9°F  66°F  calm  5 mph  none  0.00"  83%  58%  54°F  50°F  N/A
Thu 12:00 AM  60.9°F  67°F  calm  5 mph  none  0.00"  84%  57%  56°F  51°F  N/A
Wed 11:00 PM  60.4°F  68°F  calm  5 mph  none  0.00"  81%  56%  54°F  51°F  N/A
Wed 10:00 PM  62.5°F  70°F  calm  6 mph  none  0.00"  75%  52%  54°F  51°F  N/A
Wed 09:00 PM  65.0°F  72°F  calm  6 mph  none  0.00"  70%  47%  55°F  50°F  N/A
Wed 08:00 PM  69.5°F  77°F  calm  7 mph  none  0.00"  52%  41%  50°F  50°F  N/A
Wed 07:00 PM  74.9°F  82°F  calm  10 mph  3 mph  0.00"  42%  35%  50°F  50°F  N/A
Wed 06:00 PM  78.2°F  85°F  calm  11 mph  14 mph  0.00"  32%  30%  45°F  50°F  N/A
Wed 05:00 PM  80.1°F  88°F  calm  12 mph  15 mph  0.00"  32%  27%  47°F  48°F  N/A
Wed 04:00 PM  80.9°F  89°F  9 mph NW  11 mph  16 mph  0.00"  32%  25%  48°F  47°F  N/A
Wed 03:00 PM  82.8°F  90°F  calm  11 mph  16 mph  0.00"  28%  24%  45°F  47°F  N/A
Wed 02:00 PM  83.8°F  90°F  11 mph W  11 mph  16 mph  0.00"  28%  23%  46°F  46°F  N/A
Wed 01:00 PM  85.0°F  89°F  calm  10 mph  10 mph  0.00"  23%  23%  41°F  45°F  N/A
Wed 12:00 PM  83.0°F  89°F  4 mph SE  9 mph  none  0.00"  24%  23%  42°F  45°F  N/A
Wed 11:00 AM  82.4°F  87°F  calm  9 mph  2 mph  0.00"  25%  24%  41°F  45°F  N/A
Wed 10:00 AM  81.3°F  85°F  calm  8 mph  none  0.00"  25%  25%  41°F  44°F  N/A
Wed 09:00 AM  77.6°F  82°F  calm  6 mph  none  0.00"  28%  29%  41°F  46°F  N/A
Wed 08:00 AM  73.5°F  77°F  calm  5 mph  none  0.00"  33%  36%  41°F  47°F  N/A
Wed 07:00 AM  66.4°F  70°F  calm  4 mph  none  0.00"  43%  47%  43°F  48°F  N/A
Wed 06:00 AM  59.5°F  64°F  calm  3 mph  none  0.00"  49%  55%  40°F  47°F  N/A
Wed 05:00 AM  59.5°F  65°F  calm  3 mph  none  0.00"  50%  55%  40°F  47°F  N/A
Wed 04:00 AM  60.2°F  65°F  calm  3 mph  none  0.00"  49%  56%  40°F  48°F  N/A
Wed 03:00 AM  60.3°F  65°F  calm  4 mph  none  0.00"  49%  57%  40°F  49°F  N/A
Wed 02:00 AM  60.0°F  65°F  calm  4 mph  none  0.00"  55%  57%  43°F  49°F  N/A
Wed 01:00 AM  59.5°F  66°F  calm  5 mph  none  0.00"  68%  57%  48°F  50°F  N/A
Wed 12:00 AM  60.3°F  67°F  calm  5 mph  none  0.00"  81%  57%  54°F  50°F  N/A
Tue 11:00 PM  60.6°F  68°F  calm  5 mph  none  0.00"  84%  55%  56°F  51°F  N/A
Tue 10:00 PM  62.6°F  69°F  calm  6 mph  none  0.00"  81%  52%  57°F  50°F  N/A
Tue 09:00 PM  65.9°F  72°F  calm  6 mph  none  0.00"  74%  47%  57°F  50°F  N/A

  1. Current weather data. No green row appears if the current weather data is also the high or low for the current day.
  2. High temperature for the current day.
  3. Low temperature for the current day.

The Anza, California weather pages are a service of WeatherCurrents. The Anza Valley is southwestern Riverside County, east of Temecula and Aguanga, south of Mount San Jacinto and west of Mount Santa Rosa.
Copyright ©2020  WeatherCurrents. All rights reserved. - Submit questions and comments - Privacy Policy

This page automatically refreshes every 10 minutes.